Airfield :
LOGIN :

Register | Disclaimer

   EN    FR    IT 

 










Legend :    VFR   Marginal VFR   IFR   Intensive IFR   Very Intensive IFR
Visi :
Ceiling :
>= 8 km
>= 3000ft
5 to 8 km
1000 to 3000 ft
1500m to 5 km
500 to 1000 ft
800 to 1500m
200 to 500 ft
< 800m
< 200 ft
Symbols :   Thunderstorms  Fog  Heavy snow  Heavy precipitations  Wind > 20 kt
SIGMETs :     Misc.  Thunderstorms  Icing  Turbulence  Mountain Waves  Volcanic Ashes







- Airport Elevation : 117 ft
- IATA code : NWI
- Download approach charts


EGSH - Norwich

CURRENT METAR :
  • 190050Z AUTO 02004KT 360V070 9999 SCT040/// BKN048/// 13/13 Q1010

EXPIRED METARs :
  • 190020Z AUTO 04005KT 9999 NCD 13/13 Q1010
  • 182350Z AUTO 04005KT 9999 NCD 13/13 Q1011
  • 182320Z AUTO 02003KT 9999 NCD 13/13 Q1011
  • 182250Z AUTO 03003KT 9999 FEW042/// 14/13 Q1011
  • 182220Z AUTO 08005KT 9999 NCD 14/13 Q1011
  • 182150Z AUTO 06004KT 010V100 9999 FEW011/// SCT029/// 14/13 Q1011 RERA

Expired Forecast.
ATIS : +44 1603 420 640
No reported NOTAMs for that airfield.
1 SIGMET reported for the London FIR (EGTT) :
 
Frequent thunderstorms
EGTT SIGMET 06 VALID 182300/190200 EGRR
EGTT LONDON FIR FRQ TS FCST WI N5114 W00010 - N5218 E00150 - N5217 E00240 - N5128 E00146 - N5102 E00136 - N5100 E00128 - N5040 E00128 - N5000 W00015 - N5000 W00033 - N5114 W00010 TOP FL330 MOV NE 25KT NC=



MET'MAP, your aeronautical weather chart ! - Copyright ORBIFLY December 2007 - Disclaimer

ORBIFLY MET'MAP TEAM :

Programming & Development : Alexandra Zaïnal
Concept & Development : Baudouin d'Aumeries
Co-Development & Prog : Marc-Olivier Méhu
Technical & hardware support : Manuel Goepfert

Contact : metmap@orbifly.com




SOURCES & CREDITS :

   NOAA